sensor_id;sensor_type;location;lat;lon;timestamp;pressure;altitude;pressure_sealevel;temperature;humidity
498;BME280;39559;48.630;9.162;2022-11-20T00:01:15;96943.69;;;3.91;100.00
498;BME280;39559;48.630;9.162;2022-11-20T00:03:41;96949.69;;;3.91;100.00
498;BME280;39559;48.630;9.162;2022-11-20T00:06:10;96955.88;;;3.82;100.00
498;BME280;39559;48.630;9.162;2022-11-20T00:10:12;96960.59;;;3.63;100.00
498;BME280;39559;48.630;9.162;2022-11-20T00:12:37;96950.63;;;3.51;100.00
498;BME280;39559;48.630;9.162;2022-11-20T00:15:03;96954.06;;;3.50;100.00
498;BME280;39559;48.630;9.162;2022-11-20T00:17:29;96952.94;;;3.62;100.00
498;BME280;39559;48.630;9.162;2022-11-20T00:19:55;96953.47;;;3.39;100.00
498;BME280;39559;48.630;9.162;2022-11-20T00:22:20;96953.91;;;3.19;100.00
498;BME280;39559;48.630;9.162;2022-11-20T00:24:46;96962.41;;;3.22;100.00
498;BME280;39559;48.630;9.162;2022-11-20T00:27:11;96954.69;;;3.22;100.00
498;BME280;39559;48.630;9.162;2022-11-20T00:29:37;96958.13;;;3.21;100.00
498;BME280;39559;48.630;9.162;2022-11-20T00:34:11;96956.28;;;3.28;100.00
498;BME280;39559;48.630;9.162;2022-11-20T00:36:37;96954.78;;;3.18;100.00
498;BME280;39559;48.630;9.162;2022-11-20T00:39:03;96959.16;;;3.13;100.00
498;BME280;39559;48.630;9.162;2022-11-20T00:41:29;96955.38;;;3.29;100.00
498;BME280;39559;48.630;9.162;2022-11-20T00:43:55;96955.69;;;3.17;100.00
498;BME280;39559;48.630;9.162;2022-11-20T00:46:23;96963.19;;;3.26;100.00
498;BME280;39559;48.630;9.162;2022-11-20T00:48:50;96963.09;;;3.29;100.00
498;BME280;39559;48.630;9.162;2022-11-20T00:51:19;96960.63;;;3.26;100.00
498;BME280;39559;48.630;9.162;2022-11-20T00:53:45;96960.69;;;3.21;100.00
498;BME280;39559;48.630;9.162;2022-11-20T00:58:11;96970.25;;;3.15;100.00
498;BME280;39559;48.630;9.162;2022-11-20T01:00:36;96972.94;;;3.08;100.00
498;BME280;39559;48.630;9.162;2022-11-20T01:03:02;96968.78;;;3.03;100.00
498;BME280;39559;48.630;9.162;2022-11-20T01:05:27;96974.78;;;3.02;100.00
498;BME280;39559;48.630;9.162;2022-11-20T01:07:53;96975.03;;;2.91;100.00
498;BME280;39559;48.630;9.162;2022-11-20T01:10:18;96988.78;;;2.87;100.00
498;BME280;39559;48.630;9.162;2022-11-20T01:12:44;96989.44;;;2.97;100.00
498;BME280;39559;48.630;9.162;2022-11-20T01:15:29;96993.03;;;2.43;100.00
498;BME280;39559;48.630;9.162;2022-11-20T01:17:55;96996.19;;;2.57;100.00
498;BME280;39559;48.630;9.162;2022-11-20T01:22:11;96993.69;;;2.53;100.00
498;BME280;39559;48.630;9.162;2022-11-20T01:24:37;96998.41;;;2.29;100.00
498;BME280;39559;48.630;9.162;2022-11-20T01:27:02;96996.31;;;2.51;100.00
498;BME280;39559;48.630;9.162;2022-11-20T01:29:28;96999.56;;;2.59;100.00
498;BME280;39559;48.630;9.162;2022-11-20T01:31:53;96999.13;;;2.37;100.00
498;BME280;39559;48.630;9.162;2022-11-20T01:34:20;96995.19;;;2.64;100.00
498;BME280;39559;48.630;9.162;2022-11-20T01:36:51;96993.38;;;2.24;100.00
498;BME280;39559;48.630;9.162;2022-11-20T01:39:23;96999.53;;;2.13;100.00
498;BME280;39559;48.630;9.162;2022-11-20T01:41:49;96999.28;;;2.28;100.00
498;BME280;39559;48.630;9.162;2022-11-20T01:46:17;96992.94;;;1.99;100.00
498;BME280;39559;48.630;9.162;2022-11-20T01:48:59;96994.69;;;1.96;100.00
498;BME280;39559;48.630;9.162;2022-11-20T01:51:35;96995.72;;;1.85;100.00
498;BME280;39559;48.630;9.162;2022-11-20T01:54:08;97002.75;;;1.71;100.00
498;BME280;39559;48.630;9.162;2022-11-20T01:56:37;96995.78;;;1.82;100.00
498;BME280;39559;48.630;9.162;2022-11-20T01:59:05;96990.81;;;1.73;100.00
498;BME280;39559;48.630;9.162;2022-11-20T02:01:33;96992.50;;;1.72;100.00
498;BME280;39559;48.630;9.162;2022-11-20T02:04:00;96997.72;;;1.66;100.00
498;BME280;39559;48.630;9.162;2022-11-20T02:06:31;96999.59;;;1.57;100.00
498;BME280;39559;48.630;9.162;2022-11-20T02:10:11;96992.72;;;1.59;100.00
498;BME280;39559;48.630;9.162;2022-11-20T02:12:37;96993.72;;;1.47;100.00
498;BME280;39559;48.630;9.162;2022-11-20T02:15:21;96993.88;;;1.36;100.00
498;BME280;39559;48.630;9.162;2022-11-20T02:17:47;96991.31;;;1.38;100.00
498;BME280;39559;48.630;9.162;2022-11-20T02:20:13;96992.09;;;1.43;100.00
498;BME280;39559;48.630;9.162;2022-11-20T02:22:54;96985.38;;;1.36;100.00
498;BME280;39559;48.630;9.162;2022-11-20T02:25:23;96985.19;;;1.48;100.00
498;BME280;39559;48.630;9.162;2022-11-20T02:27:50;96987.84;;;1.42;100.00
498;BME280;39559;48.630;9.162;2022-11-20T02:30:16;96982.63;;;1.49;100.00
498;BME280;39559;48.630;9.162;2022-11-20T02:34:11;96986.38;;;1.83;100.00
498;BME280;39559;48.630;9.162;2022-11-20T02:36:39;96979.91;;;2.13;100.00
498;BME280;39559;48.630;9.162;2022-11-20T02:39:09;96983.19;;;2.20;100.00
498;BME280;39559;48.630;9.162;2022-11-20T02:41:37;96985.47;;;2.37;100.00
498;BME280;39559;48.630;9.162;2022-11-20T02:44:04;96984.69;;;2.33;100.00
498;BME280;39559;48.630;9.162;2022-11-20T02:46:34;96978.50;;;2.43;100.00
498;BME280;39559;48.630;9.162;2022-11-20T02:49:02;96978.38;;;2.51;100.00
498;BME280;39559;48.630;9.162;2022-11-20T02:51:28;96978.84;;;2.72;100.00
498;BME280;39559;48.630;9.162;2022-11-20T02:53:53;96969.78;;;2.54;100.00
498;BME280;39559;48.630;9.162;2022-11-20T02:58:11;96970.59;;;2.56;100.00
498;BME280;39559;48.630;9.162;2022-11-20T03:00:36;96984.06;;;2.19;100.00
498;BME280;39559;48.630;9.162;2022-11-20T03:03:02;96982.75;;;2.46;100.00
498;BME280;39559;48.630;9.162;2022-11-20T03:05:27;96979.91;;;2.13;100.00
498;BME280;39559;48.630;9.162;2022-11-20T03:07:53;96988.72;;;1.97;100.00
498;BME280;39559;48.630;9.162;2022-11-20T03:10:18;96985.72;;;1.70;100.00
498;BME280;39559;48.630;9.162;2022-11-20T03:12:47;96991.75;;;1.67;100.00
498;BME280;39559;48.630;9.162;2022-11-20T03:15:12;96992.28;;;1.86;100.00
498;BME280;39559;48.630;9.162;2022-11-20T03:17:38;96988.53;;;2.07;100.00
498;BME280;39559;48.630;9.162;2022-11-20T03:22:12;96986.44;;;2.31;100.00
498;BME280;39559;48.630;9.162;2022-11-20T03:24:38;96983.63;;;2.43;100.00
498;BME280;39559;48.630;9.162;2022-11-20T03:27:03;96976.41;;;2.64;100.00
498;BME280;39559;48.630;9.162;2022-11-20T03:29:29;96975.34;;;2.74;100.00
498;BME280;39559;48.630;9.162;2022-11-20T03:31:54;96973.34;;;2.88;100.00
498;BME280;39559;48.630;9.162;2022-11-20T03:34:19;96974.66;;;2.67;100.00
498;BME280;39559;48.630;9.162;2022-11-20T03:36:45;96973.53;;;2.79;100.00
498;BME280;39559;48.630;9.162;2022-11-20T03:39:11;96972.94;;;2.66;100.00
498;BME280;39559;48.630;9.162;2022-11-20T03:41:38;96981.38;;;2.73;100.00
498;BME280;39559;48.630;9.162;2022-11-20T03:46:12;96974.50;;;2.74;100.00
498;BME280;39559;48.630;9.162;2022-11-20T03:48:38;96978.50;;;2.87;100.00
498;BME280;39559;48.630;9.162;2022-11-20T03:51:12;96967.97;;;3.02;100.00
498;BME280;39559;48.630;9.162;2022-11-20T03:53:42;96970.75;;;2.90;100.00
498;BME280;39559;48.630;9.162;2022-11-20T03:56:09;96960.34;;;2.98;100.00
498;BME280;39559;48.630;9.162;2022-11-20T03:58:57;96965.63;;;2.90;100.00
498;BME280;39559;48.630;9.162;2022-11-20T04:01:27;96970.06;;;2.82;100.00
498;BME280;39559;48.630;9.162;2022-11-20T04:03:55;96976.72;;;2.92;100.00
498;BME280;39559;48.630;9.162;2022-11-20T04:06:29;96977.69;;;2.86;100.00
498;BME280;39559;48.630;9.162;2022-11-20T04:10:14;96975.16;;;2.83;100.00
498;BME280;39559;48.630;9.162;2022-11-20T04:12:41;96979.44;;;2.84;100.00
498;BME280;39559;48.630;9.162;2022-11-20T04:15:08;96975.88;;;2.92;100.00
498;BME280;39559;48.630;9.162;2022-11-20T04:17:35;96967.19;;;2.97;100.00
498;BME280;39559;48.630;9.162;2022-11-20T04:20:04;96963.41;;;3.15;100.00
498;BME280;39559;48.630;9.162;2022-11-20T04:22:30;96959.16;;;3.13;100.00
498;BME280;39559;48.630;9.162;2022-11-20T04:24:55;96950.34;;;3.26;100.00
498;BME280;39559;48.630;9.162;2022-11-20T04:27:21;96959.09;;;3.17;100.00
498;BME280;39559;48.630;9.162;2022-11-20T04:29:46;96963.19;;;3.26;100.00
498;BME280;39559;48.630;9.162;2022-11-20T04:34:23;96951.97;;;3.30;100.00
498;BME280;39559;48.630;9.162;2022-11-20T04:36:50;96947.56;;;3.35;100.00
498;BME280;39559;48.630;9.162;2022-11-20T04:39:16;96941.44;;;3.41;100.00
498;BME280;39559;48.630;9.162;2022-11-20T04:41:42;96945.44;;;3.53;100.00
498;BME280;39559;48.630;9.162;2022-11-20T04:44:08;96942.09;;;3.49;100.00
498;BME280;39559;48.630;9.162;2022-11-20T04:46:39;96950.00;;;3.41;100.00
498;BME280;39559;48.630;9.162;2022-11-20T04:49:06;96954.31;;;3.39;100.00
498;BME280;39559;48.630;9.162;2022-11-20T04:51:32;96948.16;;;3.46;100.00
498;BME280;39559;48.630;9.162;2022-11-20T04:53:58;96948.22;;;3.43;100.00
498;BME280;39559;48.630;9.162;2022-11-20T04:58:22;96950.88;;;3.40;100.00
498;BME280;39559;48.630;9.162;2022-11-20T05:00:48;96950.03;;;3.38;100.00
498;BME280;39559;48.630;9.162;2022-11-20T05:03:13;96950.00;;;3.41;100.00
498;BME280;39559;48.630;9.162;2022-11-20T05:05:39;96947.34;;;3.44;100.00
498;BME280;39559;48.630;9.162;2022-11-20T05:08:04;96950.91;;;3.39;100.00
498;BME280;39559;48.630;9.162;2022-11-20T05:10:29;96945.75;;;3.40;100.00
498;BME280;39559;48.630;9.162;2022-11-20T05:12:56;96949.09;;;3.44;100.00
498;BME280;39559;48.630;9.162;2022-11-20T05:15:22;96949.94;;;3.44;100.00
498;BME280;39559;48.630;9.162;2022-11-20T05:17:48;96946.44;;;3.47;100.00
498;BME280;39559;48.630;9.162;2022-11-20T05:22:14;96943.81;;;3.50;100.00
498;BME280;39559;48.630;9.162;2022-11-20T05:24:40;96948.91;;;3.52;100.00
498;BME280;39559;48.630;9.162;2022-11-20T05:27:05;96951.41;;;3.55;100.00
498;BME280;39559;48.630;9.162;2022-11-20T05:29:31;96941.25;;;3.49;100.00
498;BME280;39559;48.630;9.162;2022-11-20T05:31:56;96953.22;;;3.51;100.00
498;BME280;39559;48.630;9.162;2022-11-20T05:34:22;96946.41;;;3.49;100.00
498;BME280;39559;48.630;9.162;2022-11-20T05:36:47;96945.56;;;3.48;100.00
498;BME280;39559;48.630;9.162;2022-11-20T05:39:13;96950.69;;;3.48;100.00
498;BME280;39559;48.630;9.162;2022-11-20T05:41:38;96940.63;;;3.40;100.00
498;BME280;39559;48.630;9.162;2022-11-20T05:46:17;96945.66;;;3.43;100.00
498;BME280;39559;48.630;9.162;2022-11-20T05:48:45;96940.69;;;3.37;100.00
498;BME280;39559;48.630;9.162;2022-11-20T05:51:13;96944.06;;;3.38;100.00
498;BME280;39559;48.630;9.162;2022-11-20T05:53:39;96938.09;;;3.39;100.00
498;BME280;39559;48.630;9.162;2022-11-20T05:56:08;96937.22;;;3.38;100.00
498;BME280;39559;48.630;9.162;2022-11-20T05:58:35;96943.25;;;3.37;100.00
498;BME280;39559;48.630;9.162;2022-11-20T06:01:22;96940.69;;;3.37;100.00
498;BME280;39559;48.630;9.162;2022-11-20T06:03:48;96942.44;;;3.35;100.00
498;BME280;39559;48.630;9.162;2022-11-20T06:06:16;96945.91;;;3.33;100.00
498;BME280;39559;48.630;9.162;2022-11-20T06:10:15;96938.97;;;3.36;100.00
498;BME280;39559;48.630;9.162;2022-11-20T06:12:41;96934.72;;;3.37;100.00
498;BME280;39559;48.630;9.162;2022-11-20T06:15:06;96934.75;;;3.35;100.00
498;BME280;39559;48.630;9.162;2022-11-20T06:17:32;96948.38;;;3.37;100.00
498;BME280;39559;48.630;9.162;2022-11-20T06:19:58;96946.56;;;3.42;100.00
498;BME280;39559;48.630;9.162;2022-11-20T06:22:23;96939.72;;;3.41;100.00
498;BME280;39559;48.630;9.162;2022-11-20T06:24:49;96939.03;;;3.35;100.00
498;BME280;39559;48.630;9.162;2022-11-20T06:27:15;96948.47;;;3.33;100.00
498;BME280;39559;48.630;9.162;2022-11-20T06:29:40;96947.47;;;3.38;100.00
498;BME280;39559;48.630;9.162;2022-11-20T06:34:15;96937.28;;;3.37;100.00
498;BME280;39559;48.630;9.162;2022-11-20T06:36:41;96938.16;;;3.34;100.00
498;BME280;39559;48.630;9.162;2022-11-20T06:39:06;96947.53;;;3.37;100.00
498;BME280;39559;48.630;9.162;2022-11-20T06:41:32;96938.97;;;3.36;100.00
498;BME280;39559;48.630;9.162;2022-11-20T06:43:57;96941.50;;;3.38;100.00
498;BME280;39559;48.630;9.162;2022-11-20T06:46:23;96939.78;;;3.38;100.00
498;BME280;39559;48.630;9.162;2022-11-20T06:48:49;96939.72;;;3.41;100.00
498;BME280;39559;48.630;9.162;2022-11-20T06:51:15;96938.06;;;3.40;100.00
498;BME280;39559;48.630;9.162;2022-11-20T06:53:41;96948.38;;;3.37;100.00
498;BME280;39559;48.630;9.162;2022-11-20T06:58:16;96948.25;;;3.42;100.00
498;BME280;39559;48.630;9.162;2022-11-20T07:00:42;96950.03;;;3.38;100.00
498;BME280;39559;48.630;9.162;2022-11-20T07:03:10;96950.03;;;3.38;100.00
498;BME280;39559;48.630;9.162;2022-11-20T07:05:36;96949.22;;;3.38;100.00
498;BME280;39559;48.630;9.162;2022-11-20T07:08:03;96956.78;;;3.44;100.00
498;BME280;39559;48.630;9.162;2022-11-20T07:10:28;96951.75;;;3.39;100.00
498;BME280;39559;48.630;9.162;2022-11-20T07:12:54;96952.72;;;3.35;100.00
498;BME280;39559;48.630;9.162;2022-11-20T07:15:21;96962.06;;;3.36;100.00
498;BME280;39559;48.630;9.162;2022-11-20T07:17:47;96968.00;;;3.38;100.00
498;BME280;39559;48.630;9.162;2022-11-20T07:22:14;96964.56;;;3.41;100.00
498;BME280;39559;48.630;9.162;2022-11-20T07:24:39;96969.56;;;3.45;100.00
498;BME280;39559;48.630;9.162;2022-11-20T07:27:05;96969.63;;;3.44;100.00
498;BME280;39559;48.630;9.162;2022-11-20T07:29:30;96971.25;;;3.46;100.00
498;BME280;39559;48.630;9.162;2022-11-20T07:31:56;96967.75;;;3.51;100.00
498;BME280;39559;48.630;9.162;2022-11-20T07:34:22;96971.28;;;3.45;100.00
498;BME280;39559;48.630;9.162;2022-11-20T07:36:48;96965.31;;;3.44;100.00
498;BME280;39559;48.630;9.162;2022-11-20T07:39:13;96964.59;;;3.38;100.00
498;BME280;39559;48.630;9.162;2022-11-20T07:41:39;96968.66;;;3.48;100.00
498;BME280;39559;48.630;9.162;2022-11-20T07:46:16;96976.16;;;3.57;100.00
498;BME280;39559;48.630;9.162;2022-11-20T07:48:42;96973.53;;;3.60;100.00
498;BME280;39559;48.630;9.162;2022-11-20T07:51:07;96971.59;;;3.70;100.00
498;BME280;39559;48.630;9.162;2022-11-20T07:53:33;96972.31;;;3.75;100.00
498;BME280;39559;48.630;9.162;2022-11-20T07:56:00;96968.97;;;3.72;100.00
498;BME280;39559;48.630;9.162;2022-11-20T07:58:26;96971.13;;;3.89;100.00
498;BME280;39559;48.630;9.162;2022-11-20T08:00:53;96966.84;;;3.89;100.00
498;BME280;39559;48.630;9.162;2022-11-20T08:03:19;96961.69;;;3.89;100.00
498;BME280;39559;48.630;9.162;2022-11-20T08:05:44;96972.75;;;3.93;100.00
498;BME280;39559;48.630;9.162;2022-11-20T08:10:17;96979.59;;;3.94;100.00
498;BME280;39559;48.630;9.162;2022-11-20T08:12:47;96981.19;;;3.98;100.00
498;BME280;39559;48.630;9.162;2022-11-20T08:15:31;96990.47;;;4.03;100.00
498;BME280;39559;48.630;9.162;2022-11-20T08:18:10;96993.00;;;4.05;100.00
498;BME280;39559;48.630;9.162;2022-11-20T08:20:37;96995.53;;;4.07;100.00
498;BME280;39559;48.630;9.162;2022-11-20T08:23:05;97001.47;;;4.09;100.00
498;BME280;39559;48.630;9.162;2022-11-20T08:25:32;96996.38;;;4.07;100.00
498;BME280;39559;48.630;9.162;2022-11-20T08:28:02;96996.38;;;4.07;100.00
498;BME280;39559;48.630;9.162;2022-11-20T08:30:28;97003.03;;;4.14;100.00
498;BME280;39559;48.630;9.162;2022-11-20T08:34:15;97007.41;;;4.11;100.00
498;BME280;39559;48.630;9.162;2022-11-20T08:36:40;97010.56;;;4.22;100.00
498;BME280;39559;48.630;9.162;2022-11-20T08:39:06;97014.72;;;4.28;100.00
498;BME280;39559;48.630;9.162;2022-11-20T08:41:31;97020.78;;;4.25;100.00
498;BME280;39559;48.630;9.162;2022-11-20T08:44:03;97018.22;;;4.23;100.00
498;BME280;39559;48.630;9.162;2022-11-20T08:46:36;97017.31;;;4.28;100.00
498;BME280;39559;48.630;9.162;2022-11-20T08:49:07;97021.53;;;4.29;100.00
498;BME280;39559;48.630;9.162;2022-11-20T08:51:32;97017.91;;;4.37;100.00
498;BME280;39559;48.630;9.162;2022-11-20T08:53:58;97022.09;;;4.40;100.00
498;BME280;39559;48.630;9.162;2022-11-20T08:58:17;97024.94;;;4.64;100.00
498;BME280;39559;48.630;9.162;2022-11-20T09:00:42;97021.00;;;4.50;100.00
498;BME280;39559;48.630;9.162;2022-11-20T09:03:08;97024.41;;;4.51;100.00
498;BME280;39559;48.630;9.162;2022-11-20T09:05:34;97029.03;;;4.71;100.00
498;BME280;39559;48.630;9.162;2022-11-20T09:07:59;97022.06;;;4.74;100.00
498;BME280;39559;48.630;9.162;2022-11-20T09:10:28;97016.97;;;4.73;100.00
498;BME280;39559;48.630;9.162;2022-11-20T09:12:54;97018.59;;;4.77;100.00
498;BME280;39559;48.630;9.162;2022-11-20T09:15:23;97020.81;;;4.89;100.00
498;BME280;39559;48.630;9.162;2022-11-20T09:17:59;97028.31;;;4.98;100.00
498;BME280;39559;48.630;9.162;2022-11-20T09:22:17;97025.97;;;5.21;100.00
498;BME280;39559;48.630;9.162;2022-11-20T09:24:43;97026.25;;;5.10;100.00
498;BME280;39559;48.630;9.162;2022-11-20T09:27:08;97034.84;;;5.09;100.00
498;BME280;39559;48.630;9.162;2022-11-20T09:29:34;97036.59;;;5.08;100.00
498;BME280;39559;48.630;9.162;2022-11-20T09:31:59;97032.47;;;5.03;100.00
498;BME280;39559;48.630;9.162;2022-11-20T09:34:25;97036.09;;;4.95;100.00
498;BME280;39559;48.630;9.162;2022-11-20T09:36:50;97028.16;;;5.03;100.00
498;BME280;39559;48.630;9.162;2022-11-20T09:39:16;97031.63;;;5.02;100.00
498;BME280;39559;48.630;9.162;2022-11-20T09:42:08;97038.22;;;5.11;100.00
498;BME280;39559;48.630;9.162;2022-11-20T09:46:21;97039.84;;;5.15;100.00
498;BME280;39559;48.630;9.162;2022-11-20T09:49:17;97041.03;;;5.03;100.00
498;BME280;39559;48.630;9.162;2022-11-20T09:51:57;97037.72;;;4.98;100.00
498;BME280;39559;48.630;9.162;2022-11-20T09:54:33;97041.09;;;5.00;100.00
498;BME280;39559;48.630;9.162;2022-11-20T09:57:22;97056.47;;;5.03;100.00
498;BME280;39559;48.630;9.162;2022-11-20T09:59:56;97041.78;;;5.07;100.00
498;BME280;39559;48.630;9.162;2022-11-20T10:04:53;97040.91;;;5.08;100.00
498;BME280;39559;48.630;9.162;2022-11-20T10:07:37;97045.31;;;5.04;100.00
498;BME280;39559;48.630;9.162;2022-11-20T10:10:26;97045.94;;;5.11;100.00
498;BME280;39559;48.630;9.162;2022-11-20T10:13:57;97037.28;;;5.15;100.00
498;BME280;39559;48.630;9.162;2022-11-20T10:24:48;97047.16;;;4.99;100.00
498;BME280;39559;48.630;9.162;2022-11-20T10:29:47;97043.63;;;5.02;100.00
498;BME280;39559;48.630;9.162;2022-11-20T10:34:33;97041.06;;;5.02;100.00
498;BME280;39559;48.630;9.162;2022-11-20T10:37:14;97046.94;;;5.07;100.00
498;BME280;39559;48.630;9.162;2022-11-20T10:42:24;97041.72;;;5.10;100.00
498;BME280;39559;48.630;9.162;2022-11-20T10:45:01;97048.47;;;5.12;100.00
498;BME280;39559;48.630;9.162;2022-11-20T10:47:30;97048.34;;;5.18;100.00
498;BME280;39559;48.630;9.162;2022-11-20T10:50:01;97039.75;;;5.18;100.00
498;BME280;39559;48.630;9.162;2022-11-20T10:52:56;97030.06;;;5.28;100.00
498;BME280;39559;48.630;9.162;2022-11-20T10:58:42;97034.03;;;5.38;100.00
498;BME280;39559;48.630;9.162;2022-11-20T11:03:41;97039.47;;;5.27;100.00
498;BME280;39559;48.630;9.162;2022-11-20T11:06:20;97034.25;;;5.30;100.00
498;BME280;39559;48.630;9.162;2022-11-20T11:08:49;97028.03;;;5.37;100.00
498;BME280;39559;48.630;9.162;2022-11-20T11:11:27;97023.84;;;5.35;100.00
498;BME280;39559;48.630;9.162;2022-11-20T11:14:08;97022.41;;;5.53;100.00
498;BME280;39559;48.630;9.162;2022-11-20T11:16:34;97019.53;;;5.64;100.00
498;BME280;39559;48.630;9.162;2022-11-20T11:19:07;97010.34;;;5.83;100.00
498;BME280;39559;48.630;9.162;2022-11-20T11:22:18;97010.88;;;5.93;100.00
498;BME280;39559;48.630;9.162;2022-11-20T11:24:52;97003.09;;;5.96;100.00
498;BME280;39559;48.630;9.162;2022-11-20T11:27:18;96997.94;;;5.96;100.00
498;BME280;39559;48.630;9.162;2022-11-20T11:29:44;96997.31;;;6.16;100.00
498;BME280;39559;48.630;9.162;2022-11-20T11:32:16;96988.94;;;6.09;100.00
498;BME280;39559;48.630;9.162;2022-11-20T11:34:42;96982.75;;;6.15;100.00
498;BME280;39559;48.630;9.162;2022-11-20T11:37:16;96979.41;;;6.11;100.00
498;BME280;39559;48.630;9.162;2022-11-20T11:39:43;96979.50;;;6.08;100.00
498;BME280;39559;48.630;9.162;2022-11-20T11:42:18;96974.94;;;6.17;100.00
498;BME280;39559;48.630;9.162;2022-11-20T11:46:29;96974.34;;;6.35;100.00
498;BME280;39559;48.630;9.162;2022-11-20T11:49:18;96962.69;;;6.97;100.00
498;BME280;39559;48.630;9.162;2022-11-20T11:54:23;96970.72;;;6.41;100.00
498;BME280;39559;48.630;9.162;2022-11-20T11:56:49;96967.66;;;6.29;100.00
498;BME280;39559;48.630;9.162;2022-11-20T11:59:23;96965.47;;;6.17;100.00
498;BME280;39559;48.630;9.162;2022-11-20T12:01:56;96954.53;;;6.36;100.00
498;BME280;39559;48.630;9.162;2022-11-20T12:07:06;96956.84;;;6.43;100.00
498;BME280;39559;48.630;9.162;2022-11-20T12:10:23;96944.31;;;6.32;100.00
498;BME280;39559;48.630;9.162;2022-11-20T12:15:58;96952.09;;;6.31;100.00
498;BME280;39559;48.630;9.162;2022-11-20T12:18:23;96954.31;;;6.17;100.00
498;BME280;39559;48.630;9.162;2022-11-20T12:21:02;96949.47;;;6.07;100.00
498;BME280;39559;48.630;9.162;2022-11-20T12:26:13;96952.78;;;6.11;100.00
498;BME280;39559;48.630;9.162;2022-11-20T12:28:48;96948.31;;;6.41;100.00
498;BME280;39559;48.630;9.162;2022-11-20T12:36:49;96939.56;;;6.70;100.00
498;BME280;39559;48.630;9.162;2022-11-20T12:42:19;96941.97;;;6.51;100.00
498;BME280;39559;48.630;9.162;2022-11-20T12:48:38;96956.47;;;6.29;100.00
498;BME280;39559;48.630;9.162;2022-11-20T12:58:27;96951.38;;;6.02;100.00
498;BME280;39559;48.630;9.162;2022-11-20T13:07:01;96949.16;;;5.90;100.00
498;BME280;39559;48.630;9.162;2022-11-20T13:09:28;96941.44;;;5.90;100.00
498;BME280;39559;48.630;9.162;2022-11-20T13:17:31;96949.53;;;6.56;100.00
498;BME280;39559;48.630;9.162;2022-11-20T13:22:28;96932.13;;;7.54;100.00
498;BME280;39559;48.630;9.162;2022-11-20T13:24:54;96939.13;;;7.73;100.00
498;BME280;39559;48.630;9.162;2022-11-20T13:27:23;96925.72;;;7.85;97.01
498;BME280;39559;48.630;9.162;2022-11-20T13:30:12;96927.19;;;8.33;94.82
498;BME280;39559;48.630;9.162;2022-11-20T13:32:58;96918.56;;;8.33;95.53
498;BME280;39559;48.630;9.162;2022-11-20T13:35:28;96922.72;;;8.16;97.64
498;BME280;39559;48.630;9.162;2022-11-20T13:38:26;96920.97;;;7.32;100.00
498;BME280;39559;48.630;9.162;2022-11-20T13:40:59;96924.38;;;6.86;100.00
498;BME280;39559;48.630;9.162;2022-11-20T13:46:16;96924.75;;;6.27;100.00
498;BME280;39559;48.630;9.162;2022-11-20T13:48:46;96911.72;;;6.06;100.00
498;BME280;39559;48.630;9.162;2022-11-20T14:02:17;96904.13;;;5.75;100.00
498;BME280;39559;48.630;9.162;2022-11-20T14:04:47;96910.59;;;5.60;100.00
498;BME280;39559;48.630;9.162;2022-11-20T14:07:13;96911.50;;;5.59;100.00
498;BME280;39559;48.630;9.162;2022-11-20T14:10:25;96907.78;;;5.41;100.00
498;BME280;39559;48.630;9.162;2022-11-20T14:12:52;96906.66;;;5.50;100.00
498;BME280;39559;48.630;9.162;2022-11-20T14:15:33;96907.91;;;5.36;100.00
498;BME280;39559;48.630;9.162;2022-11-20T14:17:59;96908.81;;;5.35;100.00
498;BME280;39559;48.630;9.162;2022-11-20T14:20:27;96905.44;;;5.33;100.00
498;BME280;39559;48.630;9.162;2022-11-20T14:22:54;96904.53;;;5.34;100.00
498;BME280;39559;48.630;9.162;2022-11-20T14:25:25;96896.97;;;5.30;100.00
498;BME280;39559;48.630;9.162;2022-11-20T14:28:00;96901.66;;;5.44;100.00
498;BME280;39559;48.630;9.162;2022-11-20T14:30:29;96901.13;;;5.34;100.00
498;BME280;39559;48.630;9.162;2022-11-20T14:34:19;96902.56;;;5.43;100.00
498;BME280;39559;48.630;9.162;2022-11-20T14:36:45;96906.31;;;5.32;100.00
498;BME280;39559;48.630;9.162;2022-11-20T14:39:19;96897.59;;;5.36;100.00
498;BME280;39559;48.630;9.162;2022-11-20T14:41:53;96898.81;;;5.26;100.00
498;BME280;39559;48.630;9.162;2022-11-20T14:44:27;96891.16;;;5.23;100.00
498;BME280;39559;48.630;9.162;2022-11-20T14:46:54;96890.28;;;5.24;100.00
498;BME280;39559;48.630;9.162;2022-11-20T14:49:20;96883.72;;;5.14;100.00
498;BME280;39559;48.630;9.162;2022-11-20T14:51:46;96878.03;;;5.31;100.00
498;BME280;39559;48.630;9.162;2022-11-20T14:58:23;96874.50;;;5.35;100.00
498;BME280;39559;48.630;9.162;2022-11-20T15:01:07;96869.75;;;5.23;100.00
498;BME280;39559;48.630;9.162;2022-11-20T15:03:37;96875.69;;;5.25;100.00
498;BME280;39559;48.630;9.162;2022-11-20T15:06:10;96869.03;;;5.17;100.00
498;BME280;39559;48.630;9.162;2022-11-20T15:08:36;96866.88;;;5.04;100.00
498;BME280;39559;48.630;9.162;2022-11-20T15:11:02;96868.09;;;4.92;100.00
498;BME280;39559;48.630;9.162;2022-11-20T15:13:38;96860.63;;;4.84;100.00
498;BME280;39559;48.630;9.162;2022-11-20T15:16:14;96858.91;;;4.83;100.00
498;BME280;39559;48.630;9.162;2022-11-20T15:18:42;96846.06;;;4.83;100.00
498;BME280;39559;48.630;9.162;2022-11-20T15:22:15;96842.53;;;4.57;100.00
498;BME280;39559;48.630;9.162;2022-11-20T15:24:41;96846.09;;;4.53;100.00
498;BME280;39559;48.630;9.162;2022-11-20T15:27:10;96830.06;;;4.43;100.00
498;BME280;39559;48.630;9.162;2022-11-20T15:29:36;96840.56;;;4.36;100.00
498;BME280;39559;48.630;9.162;2022-11-20T15:32:02;96832.84;;;4.36;100.00
498;BME280;39559;48.630;9.162;2022-11-20T15:34:28;96837.75;;;4.14;100.00
498;BME280;39559;48.630;9.162;2022-11-20T15:36:54;96833.41;;;4.16;100.00
498;BME280;39559;48.630;9.162;2022-11-20T15:39:20;96831.00;;;4.11;100.00
498;BME280;39559;48.630;9.162;2022-11-20T15:41:46;96828.78;;;3.97;100.00
498;BME280;39559;48.630;9.162;2022-11-20T15:46:16;96821.63;;;4.09;100.00
498;BME280;39559;48.630;9.162;2022-11-20T15:48:46;96825.84;;;4.11;100.00
498;BME280;39559;48.630;9.162;2022-11-20T15:51:34;96823.50;;;4.02;100.00
498;BME280;39559;48.630;9.162;2022-11-20T15:54:00;96827.94;;;3.97;100.00